Time;durP1;ratioP1;P1;durP2;ratioP2;P2;SDS_P1;SDS_P2;PMS_P1;PMS_P2;Temp;Humidity;BMP_temperature;BMP_pressure;BME280_temperature;BME280_humidity;BME280_pressure;Samples;Min_cycle;Max_cycle;Signal;HPM_P1;HPM_P2
2022/02/17 00:00:42;;;;;;;1.10;0.60;;;11.30;99.90;;;;;;5113969;28;20866;-65
2022/02/17 00:03:09;;;;;;;1.10;0.60;;;11.30;99.90;;;;;;5113654;28;20815;-65
2022/02/17 00:05:36;;;;;;;1.90;0.77;;;11.30;99.90;;;;;;5113817;28;20801;-65
2022/02/17 00:08:04;;;;;;;1.77;0.90;;;11.20;99.90;;;;;;5113654;28;20482;-65
2022/02/17 00:10:32;;;;;;;3.77;1.30;;;11.10;99.90;;;;;;5122427;28;20509;-66
2022/02/17 00:13:00;;;;;;;4.20;1.20;;;11.00;99.90;;;;;;5131527;28;20775;-66
2022/02/17 00:15:30;;;;;;;3.47;1.13;;;10.90;99.90;;;;;;5130924;28;20488;-65
2022/02/17 00:17:57;;;;;;;2.50;1.10;;;10.80;99.90;;;;;;5130405;28;20445;-65
2022/02/17 00:20:25;;;;;;;2.23;0.80;;;10.70;99.90;;;;;;5114704;28;20925;-65
2022/02/17 00:22:52;;;;;;;1.67;0.70;;;10.70;99.90;;;;;;5113548;28;20452;-66
2022/02/17 00:25:20;;;;;;;4.57;1.27;;;10.70;99.90;;;;;;5116459;28;20978;-65
2022/02/17 00:27:47;;;;;;;4.00;1.20;;;10.80;99.90;;;;;;5117981;28;20483;-65
2022/02/17 00:30:14;;;;;;;1.77;0.90;;;10.80;99.90;;;;;;5117836;28;20444;-66
2022/02/17 00:32:43;;;;;;;2.70;1.00;;;10.80;99.90;;;;;;5117388;28;20448;-66
2022/02/17 00:35:10;;;;;;;6.00;1.20;;;10.80;99.90;;;;;;5117430;28;20484;-66
2022/02/17 00:37:37;;;;;;;4.43;1.53;;;10.80;99.90;;;;;;5117401;28;20450;-66
2022/02/17 00:40:05;;;;;;;2.30;1.00;;;10.70;99.90;;;;;;5117226;28;20453;-66
2022/02/17 00:42:32;;;;;;;2.87;1.37;;;10.70;99.90;;;;;;5117106;28;20452;-66
2022/02/17 00:44:59;;;;;;;1.50;0.90;;;10.70;99.90;;;;;;5117411;28;20461;-66
2022/02/17 00:47:27;;;;;;;4.13;1.23;;;10.80;99.90;;;;;;5117458;28;20452;-66
2022/02/17 00:49:55;;;;;;;3.40;1.10;;;10.80;99.90;;;;;;5117420;28;20441;-66
2022/02/17 00:52:22;;;;;;;2.60;1.00;;;10.80;99.90;;;;;;5117348;28;20441;-66
2022/02/17 00:54:49;;;;;;;2.80;0.93;;;10.90;99.90;;;;;;5117778;28;20480;-66
2022/02/17 00:57:16;;;;;;;3.47;1.00;;;11.00;99.90;;;;;;5118322;28;20441;-65
2022/02/17 00:59:43;;;;;;;5.00;1.33;;;11.10;99.90;;;;;;5118008;28;20436;-66
2022/02/17 01:02:10;;;;;;;3.20;1.17;;;11.10;99.90;;;;;;5117578;28;20456;-65
2022/02/17 01:04:38;;;;;;;5.47;1.73;;;11.20;99.90;;;;;;5116801;28;20457;-66
2022/02/17 01:07:06;;;;;;;6.33;1.80;;;11.20;99.90;;;;;;5116693;28;20451;-65
2022/02/17 01:09:33;;;;;;;2.93;1.00;;;11.20;99.90;;;;;;5117065;28;20453;-66
2022/02/17 01:12:00;;;;;;;6.50;2.03;;;11.20;99.90;;;;;;5116611;28;20815;-65
2022/02/17 01:14:27;;;;;;;8.30;2.03;;;11.30;99.90;;;;;;5116898;28;20485;-66
2022/02/17 01:16:55;;;;;;;4.10;1.60;;;11.30;99.90;;;;;;5116556;28;20451;-65
2022/02/17 01:19:22;;;;;;;5.10;1.87;;;11.30;99.00;;;;;;5116558;28;20441;-65
2022/02/17 01:21:49;;;;;;;6.20;1.80;;;11.20;98.80;;;;;;5116876;28;20437;-65
2022/02/17 01:24:17;;;;;;;2.73;1.50;;;11.20;98.50;;;;;;5116358;28;20480;-65
2022/02/17 01:26:44;;;;;;;3.33;1.53;;;11.10;98.10;;;;;;5117027;28;20437;-64
2022/02/17 01:29:11;;;;;;;4.47;1.50;;;11.10;97.20;;;;;;5116638;28;20472;-64
2022/02/17 01:31:38;;;;;;;6.27;1.40;;;11.20;97.20;;;;;;5116497;28;20441;-64
2022/02/17 01:34:06;;;;;;;7.23;1.40;;;11.20;96.10;;;;;;5116808;28;20483;-64
2022/02/17 01:36:33;;;;;;;9.50;2.80;;;11.30;95.00;;;;;;5116325;28;20450;-64
2022/02/17 01:39:00;;;;;;;5.97;1.80;;;11.30;94.40;;;;;;5116758;28;20448;-64
2022/02/17 01:41:29;;;;;;;5.97;2.13;;;11.40;94.70;;;;;;5116960;28;20445;-65
2022/02/17 01:44:00;;;;;;;8.20;2.50;;;11.40;94.50;;;;;;5116601;28;20468;-65
2022/02/17 01:46:35;;;;;;;5.43;1.93;;;11.40;94.20;;;;;;5117098;28;20433;-65
2022/02/17 01:49:03;;;;;;;2.40;1.27;;;11.40;94.00;;;;;;5116641;28;20847;-65
2022/02/17 01:51:31;;;;;;;9.53;2.80;;;11.40;93.50;;;;;;5116440;28;20433;-65
2022/02/17 01:53:58;;;;;;;4.03;1.60;;;11.40;93.30;;;;;;5117510;28;20495;-65
2022/02/17 01:56:26;;;;;;;6.80;2.07;;;11.40;92.70;;;;;;5118728;28;20456;-65
2022/02/17 01:58:55;;;;;;;4.83;2.03;;;11.40;91.40;;;;;;5116121;28;20433;-66
2022/02/17 02:01:23;;;;;;;5.97;1.83;;;11.50;91.80;;;;;;5116130;28;20461;-65
2022/02/17 02:03:50;;;;;;;3.80;1.70;;;11.30;92.90;;;;;;5116039;28;20468;-65
2022/02/17 02:06:17;;;;;;;11.97;2.40;;;11.10;94.30;;;;;;5115958;28;20445;-65
2022/02/17 02:08:45;;;;;;;5.63;1.63;;;10.80;95.90;;;;;;5116145;28;20438;-65
2022/02/17 02:11:12;;;;;;;7.10;1.83;;;10.60;97.00;;;;;;5115742;28;20450;-65
2022/02/17 02:13:39;;;;;;;7.73;1.70;;;10.50;96.70;;;;;;5116018;28;20860;-65
2022/02/17 02:16:08;;;;;;;8.70;1.50;;;10.60;95.80;;;;;;5116150;28;20484;-66
2022/02/17 02:18:36;;;;;;;4.70;1.70;;;10.60;92.30;;;;;;5116338;28;20851;-65
2022/02/17 02:21:05;;;;;;;4.37;1.80;;;10.80;90.00;;;;;;5115810;28;20485;-65
2022/02/17 02:23:33;;;;;;;2.40;1.30;;;10.80;87.00;;;;;;5115858;28;20546;-65
2022/02/17 02:26:01;;;;;;;7.93;1.80;;;10.90;86.10;;;;;;5115516;28;20500;-65
2022/02/17 02:28:31;;;;;;;6.50;1.67;;;10.90;85.50;;;;;;5115308;28;20489;-65
2022/02/17 02:30:59;;;;;;;3.23;1.20;;;10.90;85.90;;;;;;5115340;28;21001;-65
2022/02/17 02:33:27;;;;;;;8.30;1.83;;;10.90;84.30;;;;;;5115378;28;20561;-65
2022/02/17 02:35:55;;;;;;;5.83;1.60;;;10.80;85.40;;;;;;5115419;28;21042;-65
2022/02/17 02:38:24;;;;;;;10.63;2.13;;;10.80;86.60;;;;;;5115420;28;20453;-65
2022/02/17 02:40:53;;;;;;;8.53;1.90;;;10.80;87.10;;;;;;5115535;28;20455;-65
2022/02/17 02:43:20;;;;;;;3.93;0.80;;;10.70;86.20;;;;;;5115062;28;20469;-65
2022/02/17 02:45:47;;;;;;;4.83;1.80;;;10.80;85.60;;;;;;5115274;28;20441;-65
2022/02/17 02:48:15;;;;;;;4.67;1.20;;;10.80;86.20;;;;;;5113904;28;20937;-64
2022/02/17 02:50:43;;;;;;;7.27;1.60;;;10.90;86.70;;;;;;5115335;28;20441;-65
2022/02/17 02:53:14;;;;;;;5.87;1.93;;;10.90;87.40;;;;;;5115095;28;20471;-65
2022/02/17 02:55:43;;;;;;;3.47;1.70;;;10.90;87.80;;;;;;5115326;28;20544;-65
2022/02/17 02:58:11;;;;;;;7.20;2.30;;;10.90;88.10;;;;;;5115057;28;20476;-64
2022/02/17 03:00:38;;;;;;;10.17;2.30;;;10.90;88.50;;;;;;5115329;28;20447;-64
2022/02/17 03:03:05;;;;;;;6.57;2.23;;;10.90;88.60;;;;;;5115139;28;20464;-64
2022/02/17 03:05:32;;;;;;;7.33;1.80;;;11.00;88.40;;;;;;5115092;28;20444;-65
2022/02/17 03:07:59;;;;;;;4.80;1.53;;;11.00;88.60;;;;;;5117263;28;20511;-64
2022/02/17 03:10:27;;;;;;;6.73;2.37;;;11.00;89.50;;;;;;5116581;28;20446;-64
2022/02/17 03:12:56;;;;;;;5.03;2.20;;;11.00;90.40;;;;;;5116398;28;20453;-65
2022/02/17 03:15:24;;;;;;;9.73;2.23;;;10.90;90.60;;;;;;5116614;28;20865;-65
2022/02/17 03:17:51;;;;;;;6.53;1.47;;;10.90;90.60;;;;;;5115242;28;20814;-64
2022/02/17 03:20:19;;;;;;;7.67;2.27;;;10.90;90.20;;;;;;5114781;28;20441;-65
2022/02/17 03:22:46;;;;;;;5.17;1.77;;;10.90;90.10;;;;;;5114264;28;20448;-66
2022/02/17 03:25:15;;;;;;;8.33;2.20;;;10.90;90.30;;;;;;5113998;28;20965;-65
2022/02/17 03:27:43;;;;;;;7.43;2.37;;;10.80;90.20;;;;;;5114304;28;20445;-65
2022/02/17 03:30:13;;;;;;;4.60;1.83;;;10.80;84.70;;;;;;5114160;28;20448;-65
2022/02/17 03:32:41;;;;;;;10.10;1.93;;;10.70;84.40;;;;;;5114511;28;20456;-64
2022/02/17 03:35:09;;;;;;;9.30;2.47;;;10.60;86.00;;;;;;5115182;28;20847;-64
2022/02/17 03:37:36;;;;;;;6.47;1.70;;;10.50;86.30;;;;;;5114352;28;20199;-64
2022/02/17 03:40:05;;;;;;;7.23;2.13;;;10.40;84.90;;;;;;5114546;28;20453;-64
2022/02/17 03:42:32;;;;;;;7.00;1.75;;;10.40;84.00;;;;;;5114302;28;20452;-63
2022/02/17 03:44:59;;;;;;;9.50;2.40;;;10.30;82.90;;;;;;5114253;28;20702;-65
2022/02/17 03:47:28;;;;;;;5.17;1.80;;;10.30;81.60;;;;;;5114273;28;20983;-64
2022/02/17 03:49:56;;;;;;;8.80;2.17;;;10.30;80.00;;;;;;5115959;28;20442;-64
2022/02/17 03:52:23;;;;;;;8.33;2.67;;;10.30;75.20;;;;;;5117057;28;20516;-65
2022/02/17 03:54:50;;;;;;;8.07;2.03;;;10.30;73.70;;;;;;5117566;28;20482;-65
2022/02/17 03:57:17;;;;;;;7.20;2.33;;;10.30;72.50;;;;;;5117385;28;20211;-65
2022/02/17 03:59:44;;;;;;;6.70;1.80;;;10.30;72.30;;;;;;5114637;28;20437;-64
2022/02/17 04:02:11;;;;;;;5.10;2.50;;;10.20;72.10;;;;;;5114719;28;20445;-64
2022/02/17 04:04:39;;;;;;;8.73;2.20;;;10.20;72.70;;;;;;5115695;28;20464;-64
2022/02/17 04:09:19;;;;;;;8.57;1.70;;;10.10;71.20;;;;;;5100244;27;20673;-65
2022/02/17 04:11:46;;;;;;;12.57;2.10;;;10.10;70.70;;;;;;5092457;28;20450;-64
2022/02/17 04:14:14;;;;;;;6.10;1.90;;;10.20;70.60;;;;;;5093193;28;20489;-64
2022/02/17 04:16:41;;;;;;;6.43;2.57;;;10.10;70.40;;;;;;5092693;28;20946;-64
2022/02/17 04:19:08;;;;;;;9.10;2.97;;;10.20;71.20;;;;;;5092597;28;20443;-64
2022/02/17 04:21:35;;;;;;;6.83;1.77;;;10.10;69.50;;;;;;5115329;22;20450;-62
2022/02/17 04:24:02;;;;;;;5.55;2.00;;;10.10;69.20;;;;;;5050278;28;20456;-61
2022/02/17 04:26:30;;;;;;;6.15;1.90;;;10.20;68.20;;;;;;5050728;28;20208;-61
2022/02/17 04:28:57;;;;;;;6.17;1.73;;;10.10;68.20;;;;;;5050381;28;20241;-61
2022/02/17 04:31:25;;;;;;;6.30;1.70;;;10.10;68.80;;;;;;5050458;28;20531;-61
2022/02/17 04:33:52;;;;;;;10.77;2.08;;;10.10;67.10;;;;;;5050257;28;20475;-62
2022/02/17 04:36:19;;;;;;;8.07;1.85;;;10.10;66.40;;;;;;5050776;28;20202;-60
2022/02/17 04:38:46;;;;;;;7.43;2.50;;;10.10;66.10;;;;;;5050509;28;20198;-61
2022/02/17 04:44:00;;;;;;;7.30;2.30;;;10.00;66.80;;;;;;5050090;28;20181;-60
2022/02/17 04:46:27;;;;;;;10.95;2.58;;;9.90;68.20;;;;;;5049760;28;20448;-60
2022/02/17 04:48:54;;;;;;;12.27;2.20;;;9.90;68.50;;;;;;5049537;28;20218;-60
2022/02/17 04:51:21;;;;;;;6.50;2.30;;;9.80;68.00;;;;;;5049651;28;20580;-61
2022/02/17 04:53:48;;;;;;;3.27;1.70;;;9.80;68.30;;;;;;5049387;28;20582;-61
2022/02/17 04:56:15;;;;;;;7.80;2.60;;;9.80;67.40;;;;;;5049711;28;20449;-63
2022/02/17 04:58:42;;;;;;;10.02;2.00;;;9.70;67.70;;;;;;5050090;28;20451;-61
2022/02/17 05:01:11;;;;;;;7.78;2.60;;;9.70;68.00;;;;;;5049385;28;20205;-62
2022/02/17 05:03:38;;;;;;;10.55;3.80;;;9.70;67.70;;;;;;5049361;28;20232;-59
2022/02/17 05:06:05;;;;;;;5.55;2.00;;;9.60;67.80;;;;;;5049233;28;20202;-59
2022/02/17 05:08:33;;;;;;;10.23;2.38;;;9.60;67.10;;;;;;5049509;28;20228;-59
2022/02/17 05:11:01;;;;;;;16.08;3.55;;;9.60;66.60;;;;;;5049290;28;20202;-61
2022/02/17 05:13:28;;;;;;;3.20;1.60;;;9.70;65.80;;;;;;5049153;28;20317;-60
2022/02/17 05:15:56;;;;;;;8.80;2.10;;;9.60;65.20;;;;;;5049439;28;20886;-61
2022/02/17 05:18:24;;;;;;;6.65;2.05;;;9.60;65.30;;;;;;5049008;28;20205;-63
2022/02/17 05:20:51;;;;;;;9.80;2.50;;;9.60;65.20;;;;;;5035443;28;20213;-61
2022/02/17 05:23:18;;;;;;;6.95;2.05;;;9.60;64.60;;;;;;5036153;28;20481;-61
2022/02/17 05:25:47;;;;;;;3.85;1.65;;;9.60;64.40;;;;;;5036025;28;20293;-61
2022/02/17 05:28:15;;;;;;;5.00;1.77;;;9.60;64.90;;;;;;5035684;28;20694;-62
2022/02/17 05:30:43;;;;;;;5.50;1.77;;;9.60;64.20;;;;;;5035807;28;20642;-61
2022/02/17 05:33:11;;;;;;;10.23;2.20;;;9.60;63.10;;;;;;5035802;28;20223;-61
2022/02/17 05:35:39;;;;;;;6.75;1.60;;;9.60;63.10;;;;;;5035628;28;20206;-61
2022/02/17 05:38:07;;;;;;;13.48;2.13;;;9.60;63.10;;;;;;5035767;28;20199;-61
2022/02/17 05:40:35;;;;;;;8.48;2.50;;;9.60;63.50;;;;;;5035701;28;20208;-61
2022/02/17 05:43:03;;;;;;;5.50;2.30;;;9.60;63.60;;;;;;5035641;28;20226;-61
2022/02/17 05:45:30;;;;;;;6.28;1.75;;;9.60;63.70;;;;;;5036163;28;20209;-61
2022/02/17 05:47:57;;;;;;;9.38;2.28;;;9.50;62.90;;;;;;5035272;28;20214;-60
2022/02/17 05:50:25;;;;;;;3.28;1.77;;;9.50;62.90;;;;;;5035515;28;20202;-61
2022/02/17 05:52:54;;;;;;;2.65;1.10;;;9.50;62.80;;;;;;5035519;28;20230;-60
2022/02/17 05:55:22;;;;;;;8.10;2.65;;;9.50;62.30;;;;;;5035327;28;20202;-59
2022/02/17 05:57:49;;;;;;;11.20;2.03;;;9.50;62.70;;;;;;5035462;28;20198;-60
2022/02/17 06:00:19;;;;;;;7.15;1.30;;;9.40;62.80;;;;;;5035147;28;20296;-61
2022/02/17 06:02:46;;;;;;;8.02;1.35;;;9.40;62.60;;;;;;5035050;28;20742;-61
2022/02/17 06:05:16;;;;;;;5.38;1.40;;;9.40;62.70;;;;;;5035101;28;20202;-60
2022/02/17 06:07:44;;;;;;;4.70;1.77;;;9.40;62.20;;;;;;5035023;28;20242;-59
2022/02/17 06:10:13;;;;;;;7.85;1.90;;;9.40;62.40;;;;;;5035298;28;20263;-60
2022/02/17 06:12:44;;;;;;;4.38;1.50;;;9.40;62.20;;;;;;5035301;28;20228;-60
2022/02/17 06:15:14;;;;;;;6.72;3.00;;;9.40;61.60;;;;;;5035696;28;20217;-60
2022/02/17 06:17:41;;;;;;;7.13;2.20;;;9.50;60.90;;;;;;5035208;28;20574;-61
2022/02/17 06:20:10;;;;;;;8.68;1.90;;;9.50;61.00;;;;;;5034727;28;20206;-60
2022/02/17 06:22:44;;;;;;;6.88;1.70;;;9.50;61.60;;;;;;5034561;28;20238;-60
2022/02/17 06:25:13;;;;;;;5.88;1.77;;;9.50;62.00;;;;;;5034854;28;20197;-61
2022/02/17 06:27:40;;;;;;;10.30;2.65;;;9.40;62.60;;;;;;5034801;28;20202;-61
2022/02/17 06:30:08;;;;;;;8.38;2.63;;;9.40;63.10;;;;;;5034717;28;20668;-61
2022/02/17 06:32:35;;;;;;;4.75;1.40;;;9.40;63.50;;;;;;5050179;28;20217;-61
2022/02/17 06:35:03;;;;;;;4.50;1.88;;;9.40;63.50;;;;;;5049887;28;20547;-60
2022/02/17 06:37:30;;;;;;;7.53;1.98;;;9.40;63.90;;;;;;5050600;28;20234;-60
2022/02/17 06:39:57;;;;;;;11.75;2.35;;;9.40;64.20;;;;;;5040062;28;20217;-61
2022/02/17 06:42:26;;;;;;;5.47;1.92;;;9.40;64.70;;;;;;5034656;28;20305;-61
2022/02/17 06:44:53;;;;;;;6.50;1.30;;;9.40;64.80;;;;;;5034799;28;20674;-60
2022/02/17 06:47:20;;;;;;;5.63;1.85;;;9.40;65.10;;;;;;5035299;28;20204;-60
2022/02/17 06:49:48;;;;;;;8.05;1.90;;;9.40;65.40;;;;;;5034709;28;20758;-60
2022/02/17 06:52:15;;;;;;;5.25;1.50;;;9.40;65.90;;;;;;5034300;28;20227;-60
2022/02/17 06:54:43;;;;;;;3.28;0.98;;;9.30;65.70;;;;;;5034188;28;20206;-60
2022/02/17 06:57:10;;;;;;;7.22;2.10;;;9.30;65.40;;;;;;5034407;28;20202;-59
2022/02/17 06:59:38;;;;;;;10.82;2.28;;;9.40;65.30;;;;;;5034082;28;20209;-61
2022/02/17 07:02:06;;;;;;;7.70;1.80;;;9.30;64.80;;;;;;5034166;28;20223;-59
2022/02/17 07:04:33;;;;;;;6.50;1.80;;;9.40;63.80;;;;;;5034286;28;20552;-59
2022/02/17 07:07:00;;;;;;;8.25;1.95;;;9.40;63.50;;;;;;5033873;28;20580;-61
2022/02/17 07:09:27;;;;;;;6.57;1.70;;;9.30;63.80;;;;;;5033733;28;20218;-60
2022/02/17 07:11:55;;;;;;;12.48;2.55;;;9.30;63.60;;;;;;5033550;28;20222;-61
2022/02/17 07:14:24;;;;;;;4.85;1.67;;;9.30;63.00;;;;;;5034116;28;20575;-60
2022/02/17 07:16:53;;;;;;;3.10;1.42;;;9.30;62.30;;;;;;5034146;28;20217;-60
2022/02/17 07:19:21;;;;;;;4.43;1.63;;;9.40;62.30;;;;;;5034068;28;20213;-60
2022/02/17 07:21:50;;;;;;;6.68;1.63;;;9.30;62.20;;;;;;5034029;28;20210;-62
2022/02/17 07:24:17;;;;;;;3.92;1.08;;;9.30;63.10;;;;;;5035054;28;20202;-60
2022/02/17 07:26:44;;;;;;;8.73;1.80;;;9.30;63.50;;;;;;5034071;28;20225;-60
2022/02/17 07:29:12;;;;;;;5.85;1.77;;;9.30;63.70;;;;;;5033871;28;20269;-62
2022/02/17 07:31:39;;;;;;;4.55;2.05;;;9.30;63.90;;;;;;5034255;28;20209;-62
2022/02/17 07:34:08;;;;;;;6.00;1.70;;;9.20;63.80;;;;;;5034546;28;20202;-61
2022/02/17 07:36:35;;;;;;;6.47;1.67;;;9.20;63.90;;;;;;5033786;28;20210;-60
2022/02/17 07:39:05;;;;;;;8.20;2.20;;;9.20;64.10;;;;;;5034059;28;20206;-61
2022/02/17 07:41:36;;;;;;;4.25;1.60;;;9.30;64.80;;;;;;5033872;28;20651;-61
2022/02/17 07:44:04;;;;;;;3.35;1.58;;;9.20;65.00;;;;;;5033798;28;20627;-61
2022/02/17 07:46:32;;;;;;;12.52;2.22;;;9.20;64.80;;;;;;5033638;28;20209;-61
2022/02/17 07:49:00;;;;;;;6.78;2.00;;;9.20;64.40;;;;;;5033392;28;20542;-60
2022/02/17 07:51:28;;;;;;;7.18;2.53;;;9.20;64.30;;;;;;5033448;28;20202;-60
2022/02/17 07:53:56;;;;;;;4.70;1.60;;;9.20;64.40;;;;;;5033347;28;20202;-60
2022/02/17 07:56:23;;;;;;;9.70;1.98;;;9.20;63.10;;;;;;5033626;28;20206;-60
2022/02/17 07:58:50;;;;;;;6.70;1.95;;;9.20;62.80;;;;;;5033259;28;20695;-62
2022/02/17 08:01:18;;;;;;;10.05;1.67;;;9.20;62.30;;;;;;5033133;28;20202;-59
2022/02/17 08:03:45;;;;;;;9.73;1.77;;;9.20;62.50;;;;;;5032976;28;20305;-55
2022/02/17 08:06:13;;;;;;;6.85;2.10;;;9.20;62.70;;;;;;5033213;28;20198;-59
2022/02/17 08:08:47;;;;;;;7.82;1.70;;;9.20;62.80;;;;;;5033235;28;20565;-58
2022/02/17 08:11:15;;;;;;;6.40;2.50;;;9.20;63.00;;;;;;5033060;28;20649;-60
2022/02/17 08:13:42;;;;;;;6.28;2.03;;;9.20;63.60;;;;;;5033072;28;20222;-58
2022/02/17 08:16:09;;;;;;;9.18;2.65;;;9.20;63.90;;;;;;5033223;28;20203;-63
2022/02/17 08:18:36;;;;;;;7.93;1.80;;;9.20;64.20;;;;;;5033202;28;20285;-58
2022/02/17 08:21:04;;;;;;;6.35;1.60;;;9.20;64.40;;;;;;5032738;28;20198;-59
2022/02/17 08:23:32;;;;;;;8.75;1.73;;;9.20;64.20;;;;;;5033178;28;20728;-57
2022/02/17 08:26:01;;;;;;;2.83;1.40;;;9.30;64.10;;;;;;5032837;28;20211;-57
2022/02/17 08:28:28;;;;;;;8.35;2.20;;;9.30;64.20;;;;;;5032547;28;20206;-61
2022/02/17 08:30:56;;;;;;;5.28;1.83;;;9.30;64.70;;;;;;5032696;28;20206;-62
2022/02/17 08:33:23;;;;;;;4.90;1.60;;;9.30;64.10;;;;;;5032961;28;20230;-60
2022/02/17 08:35:50;;;;;;;6.32;1.60;;;9.30;63.80;;;;;;5032671;28;20202;-60
2022/02/17 08:38:17;;;;;;;11.85;2.92;;;9.40;63.80;;;;;;5034084;28;20215;-59
2022/02/17 08:40:44;;;;;;;8.10;2.55;;;9.40;63.60;;;;;;5032354;28;20441;-60
2022/02/17 08:43:13;;;;;;;9.10;2.97;;;9.40;64.40;;;;;;5032767;28;20222;-60
2022/02/17 08:45:43;;;;;;;10.25;2.63;;;9.40;67.70;;;;;;5034047;28;20207;-57
2022/02/17 08:48:11;;;;;;;5.60;1.70;;;9.20;69.40;;;;;;5032720;28;20202;-59
2022/02/17 08:50:40;;;;;;;5.70;2.08;;;9.20;67.80;;;;;;5033021;28;20489;-61
2022/02/17 08:53:07;;;;;;;11.10;1.67;;;9.20;67.20;;;;;;5032538;28;20230;-59
2022/02/17 08:55:34;;;;;;;6.88;2.00;;;9.10;67.80;;;;;;5035010;28;20198;-58
2022/02/17 08:58:02;;;;;;;3.53;1.70;;;9.20;67.90;;;;;;5035986;28;20666;-59
2022/02/17 09:00:30;;;;;;;7.75;2.10;;;9.10;69.30;;;;;;5036582;28;20194;-57
2022/02/17 09:02:57;;;;;;;5.53;1.52;;;9.00;70.10;;;;;;5036345;28;20228;-58
2022/02/17 09:05:27;;;;;;;8.85;2.25;;;9.00;69.30;;;;;;5036091;28;20553;-58
2022/02/17 09:07:54;;;;;;;6.63;2.25;;;9.10;67.90;;;;;;5036266;28;20678;-60
2022/02/17 09:10:22;;;;;;;9.80;2.30;;;9.10;68.00;;;;;;5036371;28;20219;-59
2022/02/17 09:12:50;;;;;;;2.63;1.35;;;9.10;67.20;;;;;;5036345;28;20223;-59
2022/02/17 09:15:17;;;;;;;6.55;1.70;;;9.20;67.40;;;;;;5037053;28;20666;-59
2022/02/17 09:17:47;;;;;;;4.85;2.40;;;9.30;67.70;;;;;;5035761;28;20202;-58
2022/02/17 09:20:15;;;;;;;11.95;2.33;;;9.30;69.40;;;;;;5036261;28;20206;-60
2022/02/17 09:22:42;;;;;;;6.95;1.40;;;8.90;79.60;;;;;;5035527;28;20718;-59
2022/02/17 09:25:09;;;;;;;7.50;2.00;;;8.50;85.30;;;;;;5035771;28;20210;-62
2022/02/17 09:27:36;;;;;;;4.93;1.65;;;8.20;87.80;;;;;;5035702;28;20683;-63
2022/02/17 09:30:04;;;;;;;12.07;2.03;;;8.10;88.70;;;;;;5035577;28;20225;-61
2022/02/17 09:32:31;;;;;;;8.50;1.88;;;8.20;88.50;;;;;;5035476;28;20225;-59
2022/02/17 09:35:00;;;;;;;4.22;1.55;;;8.30;86.40;;;;;;5037217;28;20202;-62
2022/02/17 09:37:28;;;;;;;6.47;1.85;;;8.50;83.10;;;;;;5046085;28;20202;-59
2022/02/17 09:39:55;;;;;;;4.97;2.05;;;8.70;79.10;;;;;;5046913;28;20298;-60
2022/02/17 09:42:22;;;;;;;7.57;2.45;;;9.00;75.80;;;;;;5046120;28;20222;-59
2022/02/17 09:44:50;;;;;;;6.60;1.95;;;9.20;73.10;;;;;;5045658;28;20205;-59
2022/02/17 09:47:18;;;;;;;3.85;1.65;;;9.40;69.10;;;;;;5036895;28;20208;-59
2022/02/17 09:49:45;;;;;;;6.72;2.30;;;9.50;65.50;;;;;;5035962;28;20306;-59
2022/02/17 09:52:16;;;;;;;2.92;1.30;;;9.60;65.50;;;;;;5035938;28;20261;-61
2022/02/17 09:54:43;;;;;;;10.25;1.92;;;9.60;65.50;;;;;;5035271;28;20191;-60
2022/02/17 09:57:10;;;;;;;4.75;1.55;;;9.70;65.50;;;;;;5035492;28;20229;-60
2022/02/17 09:59:38;;;;;;;9.25;2.00;;;9.70;65.40;;;;;;5035925;28;20658;-60
2022/02/17 10:02:08;;;;;;;7.88;2.30;;;9.60;67.00;;;;;;5035136;28;20230;-57
2022/02/17 10:04:35;;;;;;;4.20;1.77;;;9.60;67.90;;;;;;5035219;28;20190;-62
2022/02/17 10:07:06;;;;;;;8.23;1.98;;;9.60;68.30;;;;;;5035210;28;20229;-59
2022/02/17 10:09:39;;;;;;;5.70;1.73;;;9.60;69.40;;;;;;5034634;28;20207;-59
2022/02/17 10:12:10;;;;;;;6.63;1.92;;;9.60;70.10;;;;;;5034928;28;20542;-57
2022/02/17 10:14:37;;;;;;;4.10;1.50;;;9.40;71.70;;;;;;5034928;28;20191;-58
2022/02/17 10:17:07;;;;;;;6.93;2.22;;;9.30;73.70;;;;;;5034994;28;20229;-60
2022/02/17 10:19:37;;;;;;;4.53;1.15;;;9.00;76.40;;;;;;5036963;28;20627;-59
2022/02/17 10:22:07;;;;;;;4.55;1.50;;;8.80;80.60;;;;;;5034724;28;20321;-59
2022/02/17 10:24:40;;;;;;;2.63;1.42;;;8.50;85.10;;;;;;5034934;28;20234;-59
2022/02/17 10:27:09;;;;;;;6.68;2.13;;;8.30;89.40;;;;;;5061041;22;20271;-60
2022/02/17 10:29:37;;;;;;;8.88;2.10;;;8.20;90.70;;;;;;5036784;28;20226;-63
2022/02/17 10:32:07;;;;;;;6.90;1.92;;;8.10;90.50;;;;;;5036244;28;20202;-62
2022/02/17 10:34:35;;;;;;;7.38;2.58;;;8.20;90.20;;;;;;5035824;28;20203;-63
2022/02/17 10:37:02;;;;;;;5.60;1.55;;;8.30;88.60;;;;;;5035388;28;20226;-64
2022/02/17 10:39:34;;;;;;;9.02;2.05;;;8.40;86.00;;;;;;5035607;28;20218;-63
2022/02/17 10:42:07;;;;;;;8.00;2.20;;;8.60;82.40;;;;;;5035381;28;20197;-63
2022/02/17 10:44:36;;;;;;;5.20;1.77;;;8.70;79.10;;;;;;5034897;28;20229;-63
2022/02/17 10:47:18;;;;;;;2.65;1.02;;;8.90;76.20;;;;;;5034735;28;20714;-64
2022/02/17 10:49:49;;;;;;;9.98;1.70;;;9.00;71.70;;;;;;5034700;28;20207;-63
2022/02/17 10:52:28;;;;;;;8.00;2.78;;;9.10;70.10;;;;;;5035530;28;20190;-62
2022/02/17 10:55:16;;;;;;;8.02;1.70;;;9.30;70.40;;;;;;5034374;28;20190;-63
2022/02/17 10:57:46;;;;;;;5.68;1.65;;;9.40;70.50;;;;;;5036670;28;20273;-65
2022/02/17 11:00:14;;;;;;;7.35;1.60;;;9.60;69.70;;;;;;5040709;28;20573;-62
2022/02/17 11:02:42;;;;;;;4.85;1.80;;;9.60;69.50;;;;;;5040423;28;20304;-62
2022/02/17 11:05:11;;;;;;;2.90;1.80;;;9.60;69.20;;;;;;5038585;28;20202;-63
2022/02/17 11:07:39;;;;;;;13.52;2.40;;;9.60;68.10;;;;;;5037851;28;20469;-60
2022/02/17 11:10:08;;;;;;;6.45;1.80;;;9.50;67.50;;;;;;5037060;28;20238;-65
2022/02/17 11:12:35;;;;;;;5.55;2.17;;;9.40;68.40;;;;;;5036619;28;20224;-62
2022/02/17 11:15:05;;;;;;;3.13;1.27;;;9.40;68.90;;;;;;5035370;28;20214;-64
2022/02/17 11:17:36;;;;;;;7.75;2.03;;;9.30;69.20;;;;;;5034296;28;20518;-62
2022/02/17 11:20:06;;;;;;;9.15;1.90;;;9.30;68.60;;;;;;5044589;28;20183;-63
2022/02/17 11:22:33;;;;;;;6.28;2.60;;;9.20;69.00;;;;;;5043429;28;20202;-62
2022/02/17 11:25:00;;;;;;;7.07;1.65;;;9.10;69.20;;;;;;5044844;28;20229;-63
2022/02/17 11:27:27;;;;;;;5.70;1.98;;;9.20;68.40;;;;;;5039350;28;20230;-63
2022/02/17 11:29:54;;;;;;;7.32;2.15;;;9.20;68.30;;;;;;5033994;28;20222;-63
2022/02/17 11:32:25;;;;;;;4.20;1.55;;;9.20;67.40;;;;;;5034123;28;20209;-63
2022/02/17 11:34:55;;;;;;;7.40;1.85;;;9.20;65.80;;;;;;5033912;28;20183;-63
2022/02/17 11:37:48;;;;;;;3.70;1.45;;;9.10;65.30;;;;;;5033672;28;20294;-63
2022/02/17 11:40:17;;;;;;;6.22;1.85;;;9.10;65.40;;;;;;5033290;28;20631;-63
2022/02/17 11:42:46;;;;;;;10.70;2.08;;;9.10;66.10;;;;;;5033587;28;20575;-61
2022/02/17 11:45:16;;;;;;;7.88;3.25;;;9.20;65.90;;;;;;5033229;28;20217;-63
2022/02/17 11:48:00;;;;;;;4.43;2.03;;;9.30;65.00;;;;;;5033526;28;20309;-63
2022/02/17 11:50:36;;;;;;;6.93;1.95;;;9.50;62.50;;;;;;5032031;28;20221;-64
2022/02/17 11:53:23;;;;;;;3.35;1.58;;;9.60;61.00;;;;;;5033585;28;20639;-63
2022/02/17 11:55:51;;;;;;;5.00;1.98;;;9.50;60.40;;;;;;5033657;28;20234;-63
2022/02/17 11:58:45;;;;;;;7.50;1.90;;;9.50;59.90;;;;;;5033793;28;20567;-62
2022/02/17 12:01:42;;;;;;;5.55;1.10;;;9.50;60.20;;;;;;5033880;28;20418;-62
2022/02/17 12:04:18;;;;;;;6.78;1.33;;;9.60;58.60;;;;;;4972824;28;20220;-65
2022/02/17 12:06:48;;;;;;;5.00;2.28;;;9.60;58.00;;;;;;5022557;28;20248;-62
2022/02/17 12:09:38;;;;;;;5.18;1.85;;;9.70;58.10;;;;;;5033328;28;20213;-64
2022/02/17 12:12:38;;;;;;;5.35;1.80;;;9.70;58.60;;;;;;5040506;28;20197;-64
2022/02/17 12:15:07;;;;;;;3.35;1.60;;;9.60;60.70;;;;;;5033814;28;20713;-63
2022/02/17 12:17:37;;;;;;;3.75;1.90;;;9.50;64.10;;;;;;5033262;28;20226;-63
2022/02/17 12:20:13;;;;;;;6.00;1.85;;;9.50;63.80;;;;;;5033503;28;20194;-63
2022/02/17 12:22:52;;;;;;;8.05;2.05;;;9.60;62.20;;;;;;5045226;28;20206;-64
2022/02/17 12:25:24;;;;;;;8.13;1.90;;;9.70;61.50;;;;;;5046045;28;20218;-64
2022/02/17 12:27:54;;;;;;;8.60;1.80;;;10.00;59.20;;;;;;5044483;28;20260;-63
2022/02/17 12:30:30;;;;;;;7.60;1.70;;;10.10;58.40;;;;;;5042929;28;20515;-63
2022/02/17 12:33:09;;;;;;;4.93;1.37;;;10.20;57.90;;;;;;5039328;28;20479;-63
2022/02/17 12:35:39;;;;;;;4.57;1.73;;;10.30;57.70;;;;;;5036971;28;20425;-63
2022/02/17 12:38:08;;;;;;;6.13;1.43;;;10.30;57.30;;;;;;5036941;28;20468;-63
2022/02/17 12:40:37;;;;;;;5.90;2.40;;;10.30;56.80;;;;;;5036760;28;20884;-62
2022/02/17 12:43:04;;;;;;;9.20;1.83;;;10.30;56.80;;;;;;5037153;28;20460;-64
2022/02/17 12:45:41;;;;;;;5.43;3.10;;;10.30;56.90;;;;;;5036827;28;20437;-61
2022/02/17 12:48:11;;;;;;;7.47;1.95;;;10.20;56.30;;;;;;5036657;28;20468;-62
2022/02/17 12:50:43;;;;;;;7.28;1.67;;;10.10;56.50;;;;;;5037080;28;20222;-62
2022/02/17 12:53:11;;;;;;;7.83;1.50;;;10.00;56.50;;;;;;5036172;28;20183;-63
2022/02/17 12:55:42;;;;;;;13.00;2.40;;;9.80;57.30;;;;;;5036945;28;20451;-64
2022/02/17 12:58:10;;;;;;;8.83;1.60;;;9.80;57.20;;;;;;5037051;28;20978;-63
2022/02/17 13:00:37;;;;;;;11.83;2.37;;;9.90;57.30;;;;;;5039989;28;20928;-63
2022/02/17 13:03:05;;;;;;;7.07;1.52;;;9.90;57.20;;;;;;5042240;28;20448;-63
2022/02/17 13:08:36;;;;;;;5.87;1.70;;;9.90;57.70;;;;;;5038718;28;20189;-62